CheckWX is a tool to help pilots better visualize weather data.  It is not intended as a substitute for an official pre-flight weather briefing.

15:00:29 UTC

CYTE METAR
Cape Dorset Airport
Cape Dorset, Canada
Current

60 mins ago

CYTE 201400Z AUTO 02005KT 9SM OVC009 M03/M04 A3022 RMK SLP239
Observed
May-20 @ 14:00 UTC
Wind
  • 020° at 5 KTS
Visibility
9 SM
Flight Rules
IFR
Cloud Levels
  • Overcast at 900' AGL
Temperature
-3°C / 27°F
Dewpoint
-4°C / 25°F
Humidity
93%
Altimeter
30.22" Hg
Pressure
1023.42 hPa
Previous

2 hours ago

CYTE 201300Z AUTO 01006KT 9SM OVC009 M03/M04 A3022 RMK SLP241
Observed
May-20 @ 13:00 UTC
Wind
  • 010° at 6 KTS
Visibility
9 SM
Flight Rules
IFR
Cloud Levels
  • Overcast at 900' AGL
Temperature
-3°C / 27°F
Dewpoint
-4°C / 25°F
Humidity
93%
Altimeter
30.22" Hg
Pressure
1023.42 hPa
Previous

3 hours ago

CYTE 201200Z AUTO 01006KT 9SM OVC009 M04/M05 A3023 RMK SLP244
Observed
May-20 @ 12:00 UTC
Wind
  • 010° at 6 KTS
Visibility
9 SM
Flight Rules
IFR
Cloud Levels
  • Overcast at 900' AGL
Temperature
-4°C / 25°F
Dewpoint
-5°C / 23°F
Humidity
93%
Altimeter
30.23" Hg
Pressure
1023.72 hPa